createdAt,value
2017-06-01T00:00:05.521Z,10.58
2017-06-01T00:02:33.794Z,9.18
2017-06-01T00:05:02.058Z,10.96
2017-06-01T00:07:30.310Z,10.50
2017-06-01T00:09:58.582Z,12.08
2017-06-01T00:12:26.834Z,11.18
2017-06-01T00:14:55.221Z,11.84
2017-06-01T00:17:23.511Z,10.10
2017-06-01T00:19:52.018Z,10.50
2017-06-01T00:22:20.273Z,10.58
2017-06-01T00:24:48.550Z,10.90
2017-06-01T00:27:16.801Z,10.54
2017-06-01T00:29:45.078Z,11.68
2017-06-01T00:32:13.349Z,11.12
2017-06-01T00:34:41.601Z,12.08
2017-06-01T00:37:09.898Z,11.38
2017-06-01T00:39:38.173Z,10.00
2017-06-01T00:42:06.424Z,11.08
2017-06-01T00:44:34.678Z,11.22
2017-06-01T00:47:02.949Z,11.00
2017-06-01T00:49:31.202Z,10.64
2017-06-01T00:51:59.454Z,10.04
2017-06-01T00:54:28.214Z,10.98
2017-06-01T00:56:56.469Z,10.44
2017-06-01T00:59:24.731Z,10.42
2017-06-01T01:01:53.006Z,9.56
2017-06-01T01:04:21.258Z,10.70
2017-06-01T01:06:49.513Z,12.14
2017-06-01T01:09:17.785Z,12.84
2017-06-01T01:11:46.039Z,9.96
2017-06-01T01:14:14.295Z,12.06
2017-06-01T01:16:42.569Z,11.04
2017-06-01T01:19:10.825Z,11.70
2017-06-01T01:21:39.077Z,11.26
2017-06-01T01:24:07.354Z,11.28
2017-06-01T01:26:35.606Z,10.60
2017-06-01T01:29:03.893Z,13.10
2017-06-01T01:31:32.169Z,12.02
2017-06-01T01:34:00.421Z,12.20
2017-06-01T01:36:28.677Z,13.06
2017-06-01T01:38:56.946Z,9.00
2017-06-01T01:41:25.198Z,10.30
2017-06-01T01:43:53.454Z,10.48
2017-06-01T01:46:21.929Z,11.76
2017-06-01T01:48:50.181Z,11.58
2017-06-01T01:51:18.434Z,11.72
2017-06-01T01:53:46.713Z,11.64
2017-06-01T01:56:15.277Z,10.90
2017-06-01T01:58:43.530Z,11.40
2017-06-01T02:01:11.805Z,10.36
2017-06-01T02:03:40.058Z,13.54
2017-06-01T02:06:08.315Z,12.60
2017-06-01T02:08:36.590Z,11.48
2017-06-01T02:11:04.846Z,10.68
2017-06-01T02:13:33.102Z,11.72
2017-06-01T02:16:01.390Z,11.70
2017-06-01T02:18:29.645Z,10.78
2017-06-01T02:20:57.897Z,11.62
2017-06-01T02:23:26.266Z,11.38
2017-06-01T02:25:54.526Z,12.06
2017-06-01T02:28:22.784Z,12.80
2017-06-01T02:30:51.060Z,12.34
2017-06-01T02:33:19.314Z,12.48
2017-06-01T02:35:47.570Z,12.26
2017-06-01T02:38:16.175Z,12.30
2017-06-01T02:40:44.429Z,12.68
2017-06-01T02:43:12.682Z,12.38
2017-06-01T02:45:40.957Z,13.38
2017-06-01T02:48:09.210Z,10.84
2017-06-01T02:50:37.465Z,12.28
2017-06-01T02:53:05.781Z,11.92
2017-06-01T02:55:34.037Z,11.32
2017-06-01T02:58:02.289Z,11.46
2017-06-01T03:00:30.659Z,11.00
2017-06-01T03:02:58.837Z,8.96
2017-06-01T03:05:27.097Z,11.20
2017-06-01T03:07:55.373Z,11.62
2017-06-01T03:10:23.705Z,13.48
2017-06-01T03:12:51.959Z,12.22
2017-06-01T03:15:20.261Z,11.96
2017-06-01T03:17:48.520Z,12.04
2017-06-01T03:20:16.775Z,12.76
2017-06-01T03:22:45.050Z,13.84
2017-06-01T03:25:13.306Z,12.30
2017-06-01T03:27:41.890Z,12.30
2017-06-01T03:30:10.167Z,11.62
2017-06-01T03:32:38.424Z,11.20
2017-06-01T03:35:06.677Z,12.20
2017-06-01T03:37:35.046Z,12.64
2017-06-01T03:40:03.298Z,12.44
2017-06-01T03:42:31.562Z,11.52
2017-06-01T03:44:59.838Z,10.12
2017-06-01T03:47:28.089Z,13.66
2017-06-01T03:49:56.345Z,11.72
2017-06-01T03:52:25.010Z,11.60
2017-06-01T03:54:53.269Z,12.24
2017-06-01T03:57:21.562Z,11.08
2017-06-01T03:59:49.837Z,10.42
2017-06-01T04:02:18.090Z,9.80
2017-06-01T04:04:46.347Z,11.30
2017-06-01T04:07:14.628Z,10.50
2017-06-01T04:09:42.893Z,10.46
2017-06-01T04:12:11.172Z,11.26
2017-06-01T04:14:39.441Z,12.82
2017-06-01T04:17:07.694Z,10.82
2017-06-01T04:19:35.949Z,10.86
2017-06-01T04:22:04.422Z,12.46
2017-06-01T04:24:32.731Z,10.14
2017-06-01T04:27:00.987Z,11.40
2017-06-01T04:29:29.358Z,12.22
2017-06-01T04:31:57.609Z,11.96
2017-06-01T04:34:25.862Z,12.02
2017-06-01T04:36:54.134Z,12.10
2017-06-01T04:39:22.386Z,12.36
2017-06-01T04:41:50.642Z,12.20
2017-06-01T04:44:18.913Z,12.74
2017-06-01T04:46:47.166Z,12.62
2017-06-01T04:49:15.417Z,12.40
2017-06-01T04:51:44.137Z,12.48
2017-06-01T04:54:12.390Z,12.72
2017-06-01T04:56:40.651Z,12.28
2017-06-01T04:59:08.927Z,11.20
2017-06-01T05:01:37.186Z,12.30
2017-06-01T05:04:05.517Z,10.32
2017-06-01T05:06:33.793Z,10.14
2017-06-01T05:09:02.045Z,10.12
2017-06-01T05:11:30.302Z,10.08
2017-06-01T05:13:58.570Z,9.02
2017-06-01T05:16:26.818Z,8.90
2017-06-01T05:18:55.066Z,8.12
2017-06-01T05:21:23.337Z,8.82
2017-06-01T05:23:52.168Z,9.52
2017-06-01T05:26:20.434Z,9.24
2017-06-01T05:28:48.754Z,8.42
2017-06-01T05:31:17.062Z,9.30
2017-06-01T05:33:45.309Z,7.98
2017-06-01T05:36:13.576Z,7.94
2017-06-01T05:38:41.824Z,6.82
2017-06-01T05:41:10.074Z,7.60
2017-06-01T05:43:38.337Z,7.78
2017-06-01T05:46:06.865Z,8.00
2017-06-01T05:48:35.113Z,8.10
2017-06-01T05:51:03.380Z,8.10
2017-06-01T05:53:31.625Z,8.52
2017-06-01T05:55:59.874Z,7.10
2017-06-01T05:58:28.142Z,8.26
2017-06-01T06:00:56.402Z,9.82
2017-06-01T06:03:24.645Z,8.46
2017-06-01T06:05:52.910Z,7.58
2017-06-01T06:08:21.157Z,7.32
2017-06-01T06:10:49.402Z,7.60
2017-06-01T06:13:17.674Z,8.58
2017-06-01T06:15:45.925Z,9.70
2017-06-01T06:18:14.173Z,9.16
2017-06-01T06:20:42.477Z,8.60
2017-06-01T06:23:10.734Z,10.14
2017-06-01T06:25:39.033Z,10.70
2017-06-01T06:28:07.309Z,10.24
2017-06-01T06:30:35.553Z,9.62
2017-06-01T06:33:03.805Z,9.48
2017-06-01T06:35:32.082Z,10.16
2017-06-01T06:38:00.337Z,10.72
2017-06-01T06:40:28.590Z,10.00
2017-06-01T06:42:56.869Z,9.40
2017-06-01T06:45:25.121Z,10.38
2017-06-01T06:47:53.378Z,9.66
2017-06-01T06:50:21.934Z,11.80
2017-06-01T06:52:50.185Z,9.28
2017-06-01T06:55:18.429Z,8.38
2017-06-01T06:57:46.766Z,10.08
2017-06-01T07:00:14.993Z,10.26
2017-06-01T07:02:43.240Z,8.68
2017-06-01T07:05:11.513Z,7.78
2017-06-01T07:07:39.757Z,8.10
2017-06-01T07:10:08.089Z,8.40
2017-06-01T07:12:36.357Z,7.50
2017-06-01T07:15:04.606Z,8.58
2017-06-01T07:17:32.849Z,9.28
2017-06-01T07:20:01.117Z,8.12
2017-06-01T07:22:29.369Z,7.46
2017-06-01T07:24:57.615Z,8.02
2017-06-01T07:27:25.885Z,7.86
2017-06-01T07:29:54.129Z,6.62
2017-06-01T07:32:22.378Z,5.12
2017-06-01T07:34:50.649Z,5.62
2017-06-01T07:37:18.937Z,5.38
2017-06-01T07:39:47.445Z,5.58
2017-06-01T07:42:15.715Z,5.68
2017-06-01T07:44:43.962Z,5.50
2017-06-01T07:47:12.209Z,4.28
2017-06-01T07:49:40.478Z,4.82
2017-06-01T07:52:08.773Z,4.44
2017-06-01T07:54:37.026Z,4.84
2017-06-01T07:57:05.302Z,4.04
2017-06-01T07:59:33.553Z,5.36
2017-06-01T08:02:01.806Z,4.42
2017-06-01T08:04:30.078Z,4.50
2017-06-01T08:06:58.326Z,5.74
2017-06-01T08:09:26.574Z,4.52
2017-06-01T08:11:54.845Z,4.30
2017-06-01T08:14:23.114Z,4.68
2017-06-01T08:16:51.362Z,5.30
2017-06-01T08:19:19.629Z,5.46
2017-06-01T08:21:47.874Z,3.76
2017-06-01T08:24:16.121Z,5.60
2017-06-01T08:26:44.682Z,4.32
2017-06-01T08:29:12.938Z,4.40
2017-06-01T08:31:41.185Z,3.44
2017-06-01T08:34:09.454Z,3.50
2017-06-01T08:36:37.707Z,3.78
2017-06-01T08:39:05.955Z,3.74
2017-06-01T08:41:34.291Z,3.80
2017-06-01T08:44:02.538Z,4.32
2017-06-01T08:46:30.785Z,3.76
2017-06-01T08:48:59.050Z,3.40
2017-06-01T08:51:27.294Z,3.98
2017-06-01T08:53:55.549Z,3.90
2017-06-01T08:56:24.249Z,3.80
2017-06-01T08:58:52.498Z,3.60
2017-06-01T09:01:20.741Z,3.78
2017-06-01T09:03:49.011Z,2.98
2017-06-01T09:06:17.259Z,3.52
2017-06-01T09:08:45.514Z,3.66
2017-06-01T09:11:13.782Z,3.28
2017-06-01T09:13:42.033Z,3.02
2017-06-01T09:16:10.285Z,3.68
2017-06-01T09:18:38.558Z,3.48
2017-06-01T09:21:06.823Z,3.00
2017-06-01T09:23:35.074Z,3.22
2017-06-01T09:26:03.761Z,3.64
2017-06-01T09:28:32.289Z,3.18
2017-06-01T09:31:00.534Z,3.72
2017-06-01T09:33:28.817Z,3.24
2017-06-01T09:35:57.074Z,3.14
2017-06-01T09:38:25.322Z,3.64
2017-06-01T09:40:53.658Z,3.70
2017-06-01T09:43:21.903Z,3.18
2017-06-01T09:45:50.154Z,4.16
2017-06-01T09:48:18.426Z,2.86
2017-06-01T09:50:46.728Z,3.26
2017-06-01T09:53:14.974Z,3.42
2017-06-01T09:55:43.246Z,3.64
2017-06-01T09:58:11.497Z,3.86
2017-06-01T10:00:39.834Z,3.92
2017-06-01T10:03:08.101Z,3.56
2017-06-01T10:05:36.350Z,3.80
2017-06-01T10:08:04.594Z,4.26
2017-06-01T10:10:32.863Z,4.12
2017-06-01T10:13:01.329Z,3.14
2017-06-01T10:15:29.579Z,3.70
2017-06-01T10:17:57.845Z,3.22
2017-06-01T10:20:26.089Z,3.80
2017-06-01T10:22:54.342Z,4.40
2017-06-01T10:25:22.609Z,3.60
2017-06-01T10:27:50.961Z,3.80
2017-06-01T10:30:19.210Z,3.22
2017-06-01T10:32:47.481Z,3.68
2017-06-01T10:35:15.734Z,3.90
2017-06-01T10:37:43.982Z,3.70
2017-06-01T10:40:12.254Z,4.02
2017-06-01T10:42:40.498Z,4.10
2017-06-01T10:45:08.750Z,3.18
2017-06-01T10:47:37.014Z,3.40
2017-06-01T10:50:05.265Z,2.96
2017-06-01T10:52:33.517Z,3.72
2017-06-01T10:55:01.891Z,3.84
2017-06-01T10:57:30.145Z,3.36
2017-06-01T10:59:58.389Z,3.24
2017-06-01T11:02:26.658Z,3.64
2017-06-01T11:04:54.909Z,3.06
2017-06-01T11:07:23.159Z,3.52
2017-06-01T11:09:51.434Z,3.24
2017-06-01T11:12:19.682Z,3.44
2017-06-01T11:14:47.927Z,2.86
2017-06-01T11:17:16.198Z,3.48
2017-06-01T11:19:44.446Z,2.76
2017-06-01T11:22:12.697Z,3.00
2017-06-01T11:24:40.966Z,3.06
2017-06-01T11:27:09.213Z,2.78
2017-06-01T11:29:37.693Z,3.36
2017-06-01T11:32:05.961Z,2.98
2017-06-01T11:34:34.209Z,3.50
2017-06-01T11:37:02.453Z,2.84
2017-06-01T11:39:30.726Z,3.64
2017-06-01T11:41:59.027Z,2.98
2017-06-01T11:44:27.286Z,4.02
2017-06-01T11:46:55.561Z,2.78
2017-06-01T11:49:23.814Z,3.46
2017-06-01T11:51:52.066Z,3.04
2017-06-01T11:54:20.335Z,3.10
2017-06-01T11:56:48.581Z,3.02
2017-06-01T11:59:16.830Z,2.90
2017-06-01T12:01:45.387Z,3.78
2017-06-01T12:04:13.638Z,3.64
2017-06-01T12:06:41.898Z,3.00
2017-06-01T12:09:10.185Z,3.26
2017-06-01T12:11:38.433Z,3.32
2017-06-01T12:14:06.685Z,2.58
2017-06-01T12:16:34.954Z,3.32
2017-06-01T12:19:03.202Z,3.48
2017-06-01T12:21:31.450Z,3.62
2017-06-01T12:23:59.717Z,3.08
2017-06-01T12:26:27.970Z,4.08
2017-06-01T12:28:56.222Z,3.20
2017-06-01T12:31:24.489Z,2.80
2017-06-01T12:33:52.752Z,2.72
2017-06-01T12:36:20.998Z,3.08
2017-06-01T12:38:49.285Z,3.06
2017-06-01T12:41:17.530Z,2.64
2017-06-01T12:43:45.783Z,2.90
2017-06-01T12:46:14.050Z,3.42
2017-06-01T12:48:42.294Z,2.98
2017-06-01T12:51:10.546Z,2.72
2017-06-01T12:53:38.815Z,2.94
2017-06-01T12:56:07.062Z,3.48
2017-06-01T12:58:35.310Z,3.04
2017-06-01T13:01:03.578Z,3.72
2017-06-01T13:03:31.830Z,3.66
2017-06-01T13:06:00.073Z,3.16
2017-06-01T13:08:28.337Z,3.42
2017-06-01T13:10:56.586Z,4.20
2017-06-01T13:13:24.835Z,4.20
2017-06-01T13:15:53.102Z,3.90
2017-06-01T13:18:21.350Z,4.36
2017-06-01T13:20:49.599Z,3.34
2017-06-01T13:23:17.866Z,3.54
2017-06-01T13:25:46.109Z,3.68
2017-06-01T13:28:14.361Z,3.30
2017-06-01T13:30:42.629Z,4.36
2017-06-01T13:33:10.873Z,3.96
2017-06-01T13:35:39.118Z,3.70
2017-06-01T13:38:07.382Z,4.16
2017-06-01T13:40:35.625Z,4.56
2017-06-01T13:43:03.869Z,3.96
2017-06-01T13:45:32.141Z,3.26
2017-06-01T13:48:00.389Z,3.96
2017-06-01T13:50:28.642Z,4.64
2017-06-01T13:52:56.906Z,4.28
2017-06-01T13:55:25.154Z,3.50
2017-06-01T13:57:53.398Z,3.56
2017-06-01T14:00:21.675Z,3.96
2017-06-01T14:02:49.925Z,4.34
2017-06-01T14:05:18.175Z,3.40
2017-06-01T14:07:46.718Z,3.74
2017-06-01T14:10:14.984Z,3.04
2017-06-01T14:12:43.246Z,3.88
2017-06-01T14:15:11.514Z,3.08
2017-06-01T14:17:39.765Z,2.90
2017-06-01T14:20:08.050Z,3.30
2017-06-01T14:22:36.317Z,3.46
2017-06-01T14:25:04.566Z,3.34
2017-06-01T14:27:32.818Z,3.78
2017-06-01T14:30:01.087Z,3.38
2017-06-01T14:32:29.334Z,3.32
2017-06-01T14:34:57.585Z,3.26
2017-06-01T14:37:25.850Z,3.82
2017-06-01T14:39:54.558Z,3.12
2017-06-01T14:42:22.818Z,3.08
2017-06-01T14:44:51.559Z,2.90
2017-06-01T14:47:20.209Z,3.48
2017-06-01T14:49:48.655Z,3.40
2017-06-01T14:52:17.016Z,3.18
2017-06-01T14:54:45.783Z,2.04
2017-06-01T14:57:14.123Z,3.00
2017-06-01T14:59:42.750Z,4.58
2017-06-01T15:02:11.335Z,2.80
2017-06-01T15:04:39.978Z,2.98
2017-06-01T15:07:08.430Z,3.08
2017-06-01T15:09:36.693Z,3.22
2017-06-01T15:12:05.256Z,2.78
2017-06-01T15:14:33.557Z,3.46
2017-06-01T15:17:01.870Z,3.18
2017-06-01T15:19:30.500Z,3.14
2017-06-01T15:21:58.769Z,2.88
2017-06-01T15:24:27.646Z,3.62
2017-06-01T15:26:55.947Z,3.06
2017-06-01T15:29:24.217Z,3.88
2017-06-01T15:31:52.462Z,3.26
2017-06-01T15:34:20.706Z,3.44
2017-06-01T15:36:48.978Z,4.58
2017-06-01T15:39:17.227Z,2.76
2017-06-01T15:41:45.482Z,3.44
2017-06-01T15:44:13.750Z,2.70
2017-06-01T15:46:41.993Z,3.38
2017-06-01T15:49:10.426Z,3.40
2017-06-01T15:51:38.694Z,3.08
2017-06-01T15:54:07.022Z,2.78
2017-06-01T15:56:35.273Z,3.22
2017-06-01T15:59:03.537Z,2.96
2017-06-01T16:01:31.786Z,2.72
2017-06-01T16:04:00.033Z,3.42
2017-06-01T16:06:28.714Z,2.68
2017-06-01T16:08:56.969Z,3.38
2017-06-01T16:11:25.214Z,3.50
2017-06-01T16:13:53.484Z,2.78
2017-06-01T16:16:21.734Z,3.20
2017-06-01T16:18:49.981Z,3.62
2017-06-01T16:21:18.253Z,3.20
2017-06-01T16:23:46.498Z,3.46
2017-06-01T16:26:15.070Z,3.46
2017-06-01T16:28:43.449Z,3.20
2017-06-01T16:31:11.698Z,3.02
2017-06-01T16:33:39.950Z,3.34
2017-06-01T16:36:08.232Z,3.72
2017-06-01T16:38:36.490Z,3.96
2017-06-01T16:41:04.739Z,3.14
2017-06-01T16:43:33.005Z,3.78
2017-06-01T16:46:01.253Z,3.26
2017-06-01T16:48:29.502Z,3.54
2017-06-01T16:50:57.771Z,3.32
2017-06-01T16:53:26.028Z,3.34
2017-06-01T16:55:54.282Z,3.58
2017-06-01T16:58:22.557Z,3.36
2017-06-01T17:00:50.826Z,4.88
2017-06-01T17:03:19.409Z,3.58
2017-06-01T17:05:47.677Z,3.28
2017-06-01T17:08:15.923Z,3.34
2017-06-01T17:10:44.170Z,3.08
2017-06-01T17:13:12.443Z,3.84
2017-06-01T17:15:40.693Z,4.00
2017-06-01T17:18:08.941Z,3.16
2017-06-01T17:20:37.210Z,3.28
2017-06-01T17:23:05.463Z,2.98
2017-06-01T17:25:33.710Z,4.10
2017-06-01T17:28:01.985Z,3.24
2017-06-01T17:30:30.238Z,3.30
2017-06-01T17:32:58.489Z,2.60
2017-06-01T17:35:26.767Z,2.70
2017-06-01T17:37:55.009Z,3.04
2017-06-01T17:40:23.263Z,3.62
2017-06-01T17:42:51.529Z,2.76
2017-06-01T17:45:19.781Z,3.42
2017-06-01T17:47:48.031Z,3.00
2017-06-01T17:50:16.323Z,3.80
2017-06-01T17:52:44.585Z,3.38
2017-06-01T17:55:12.836Z,3.68
2017-06-01T17:57:41.109Z,3.10
2017-06-01T18:00:09.642Z,2.84
2017-06-01T18:02:37.903Z,3.44
2017-06-01T18:05:06.176Z,2.92
2017-06-01T18:07:34.426Z,3.56
2017-06-01T18:10:02.686Z,2.94
2017-06-01T18:12:30.957Z,3.42
2017-06-01T18:14:59.282Z,3.42
2017-06-01T18:17:27.534Z,3.20
2017-06-01T18:19:55.810Z,3.06
2017-06-01T18:22:24.062Z,3.48
2017-06-01T18:24:52.313Z,6.06
2017-06-01T18:27:21.922Z,48.44
2017-06-01T18:29:50.186Z,38.44
2017-06-01T18:32:18.515Z,65.20
2017-06-01T18:34:46.785Z,5.22
2017-06-01T18:37:15.042Z,3.14
2017-06-01T18:39:43.289Z,4.18
2017-06-01T18:42:11.558Z,3.58
2017-06-01T18:44:39.809Z,3.08
2017-06-01T18:47:08.062Z,3.66
2017-06-01T18:49:36.338Z,3.60
2017-06-01T18:52:04.586Z,3.60
2017-06-01T18:54:32.838Z,3.12
2017-06-01T18:57:01.110Z,4.08
2017-06-01T18:59:29.365Z,3.44
2017-06-01T19:01:57.627Z,3.80
2017-06-01T19:04:25.913Z,3.48
2017-06-01T19:06:54.162Z,3.10
2017-06-01T19:09:22.410Z,3.62
2017-06-01T19:11:50.687Z,3.30
2017-06-01T19:14:18.934Z,3.54
2017-06-01T19:16:47.182Z,3.74
2017-06-01T19:19:15.450Z,3.82
2017-06-01T19:21:43.702Z,3.68
2017-06-01T19:24:12.049Z,4.24
2017-06-01T19:26:41.168Z,3.56
2017-06-01T19:29:09.425Z,3.78
2017-06-01T19:31:37.678Z,2.98
2017-06-01T19:34:05.946Z,3.36
2017-06-01T19:36:34.195Z,4.16
2017-06-01T19:39:02.437Z,4.54
2017-06-01T19:41:30.714Z,3.54
2017-06-01T19:43:58.965Z,3.86
2017-06-01T19:46:27.221Z,3.62
2017-06-01T19:48:55.670Z,3.26
2017-06-01T19:51:23.917Z,2.92
2017-06-01T19:53:52.167Z,3.26
2017-06-01T19:56:20.449Z,4.00
2017-06-01T19:58:48.702Z,3.78
2017-06-01T20:01:16.951Z,4.44
2017-06-01T20:03:45.217Z,4.84
2017-06-01T20:06:13.465Z,4.68
2017-06-01T20:08:41.722Z,5.66
2017-06-01T20:11:09.994Z,4.98
2017-06-01T20:13:38.238Z,5.16
2017-06-01T20:16:06.493Z,5.48
2017-06-01T20:18:34.765Z,5.74
2017-06-01T20:21:03.022Z,5.94
2017-06-01T20:23:31.269Z,5.68
2017-06-01T20:25:59.535Z,4.88
2017-06-01T20:28:27.785Z,4.90
2017-06-01T20:30:56.298Z,5.26
2017-06-01T20:33:24.570Z,4.62
2017-06-01T20:35:52.894Z,4.64
2017-06-01T20:38:21.145Z,4.62
2017-06-01T20:40:49.414Z,3.58
2017-06-01T20:43:17.665Z,3.92
2017-06-01T20:45:45.910Z,3.98
2017-06-01T20:48:14.186Z,4.78
2017-06-01T20:50:42.438Z,3.44
2017-06-01T20:53:10.690Z,4.46
2017-06-01T20:55:38.964Z,4.02
2017-06-01T20:58:07.214Z,3.82
2017-06-01T21:00:35.457Z,3.88
2017-06-01T21:03:03.737Z,3.98
2017-06-01T21:05:31.986Z,4.20
2017-06-01T21:08:00.229Z,5.04
2017-06-01T21:10:28.519Z,4.50
2017-06-01T21:12:56.765Z,4.64
2017-06-01T21:15:25.262Z,3.98
2017-06-01T21:17:53.531Z,4.30
2017-06-01T21:20:21.785Z,4.44
2017-06-01T21:22:50.034Z,3.70
2017-06-01T21:25:18.307Z,4.02
2017-06-01T21:27:46.553Z,3.74
2017-06-01T21:30:14.801Z,3.90
2017-06-01T21:32:43.071Z,3.46
2017-06-01T21:35:11.322Z,4.38
2017-06-01T21:37:39.569Z,4.48
2017-06-01T21:40:08.185Z,3.68
2017-06-01T21:42:36.437Z,4.24
2017-06-01T21:45:04.681Z,4.08
2017-06-01T21:47:32.950Z,4.02
2017-06-01T21:50:01.197Z,3.76
2017-06-01T21:52:29.703Z,4.32
2017-06-01T21:54:57.969Z,3.62
2017-06-01T21:57:26.218Z,3.90
2017-06-01T21:59:54.466Z,4.32
2017-06-01T22:02:22.739Z,4.40
2017-06-01T22:04:50.986Z,4.58
2017-06-01T22:07:19.234Z,4.50
2017-06-01T22:09:47.498Z,4.18
2017-06-01T22:12:15.741Z,4.72
2017-06-01T22:14:44.290Z,5.40
2017-06-01T22:17:12.870Z,4.88
2017-06-01T22:19:41.118Z,4.98
2017-06-01T22:22:09.362Z,4.30
2017-06-01T22:24:37.654Z,4.70
2017-06-01T22:27:05.934Z,4.60
2017-06-01T22:29:34.181Z,5.16
2017-06-01T22:32:02.451Z,4.68
2017-06-01T22:34:30.702Z,4.38
2017-06-01T22:36:58.953Z,5.26
2017-06-01T22:39:27.218Z,4.62
2017-06-01T22:41:55.461Z,4.92
2017-06-01T22:44:23.709Z,4.80
2017-06-01T22:46:51.973Z,5.42
2017-06-01T22:49:20.218Z,4.72
2017-06-01T22:51:48.474Z,5.22
2017-06-01T22:54:16.745Z,5.64
2017-06-01T22:56:44.995Z,5.06
2017-06-01T22:59:13.237Z,4.44
2017-06-01T23:01:41.506Z,4.82
2017-06-01T23:04:09.758Z,5.26
2017-06-01T23:06:38.278Z,5.30
2017-06-01T23:09:06.543Z,5.64
2017-06-01T23:11:34.786Z,4.96
2017-06-01T23:14:03.033Z,6.54
2017-06-01T23:16:31.317Z,5.80
2017-06-01T23:18:59.561Z,6.40
2017-06-01T23:21:27.805Z,6.08
2017-06-01T23:23:56.090Z,6.98
2017-06-01T23:26:24.339Z,5.54
2017-06-01T23:28:52.586Z,6.06
2017-06-01T23:31:21.281Z,6.52
2017-06-01T23:33:49.530Z,5.32
2017-06-01T23:36:17.778Z,6.18
2017-06-01T23:38:46.045Z,6.96
2017-06-01T23:41:14.299Z,5.44
2017-06-01T23:43:42.545Z,5.84
2017-06-01T23:46:10.964Z,6.96
2017-06-01T23:48:39.212Z,6.24
2017-06-01T23:51:07.753Z,6.40
2017-06-01T23:53:36.185Z,7.40
2017-06-01T23:56:04.437Z,6.24
2017-06-01T23:58:32.685Z,6.48
